Time;durP1;ratioP1;P1;durP2;ratioP2;P2;SDS_P1;SDS_P2;PMS_P1;PMS_P2;Temp;Humidity;BMP_temperature;BMP_pressure;BME280_temperature;BME280_humidity;BME280_pressure;Samples;Min_cycle;Max_cycle;Signal;HPM_P1;HPM_P2
2022/01/13 00:00:13;;;;;;;;;;;-0.10;99.90;;;;;;5057759;28;19928;-71
2022/01/13 00:02:40;;;;;;;;;;;-0.20;99.90;;;;;;5062274;28;19921;-71
2022/01/13 00:05:08;;;;;;;;;;;-0.20;99.90;;;;;;5065275;28;19921;-71
2022/01/13 00:07:36;;;;;;;;;;;-0.20;99.90;;;;;;5049592;28;19921;-71
2022/01/13 00:10:03;;;;;;;;;;;-0.20;99.90;;;;;;5066459;28;20239;-71
2022/01/13 00:12:34;;;;;;;;;;;-0.20;99.90;;;;;;5049174;28;19927;-71
2022/01/13 00:15:19;;;;;;;;;;;-0.10;99.90;;;;;;5065611;28;19980;-71
2022/01/13 00:17:58;;;;;;;;;;;-0.20;99.90;;;;;;5062231;28;20364;-72
2022/01/13 00:20:58;;;;;;;;;;;-0.20;99.90;;;;;;5046719;28;19927;-71
2022/01/13 00:23:46;;;;;;;;;;;-0.10;99.90;;;;;;5061485;28;19928;-70
2022/01/13 00:26:18;;;;;;;;;;;-0.10;99.90;;;;;;5066859;28;19921;-70
2022/01/13 00:28:47;;;;;;;;;;;-0.10;99.90;;;;;;5055495;28;20201;-70
2022/01/13 00:31:16;;;;;;;;;;;-0.10;99.90;;;;;;5046185;28;19921;-71
2022/01/13 00:33:45;;;;;;;;;;;-0.10;99.90;;;;;;5048918;28;19921;-70
2022/01/13 00:36:13;;;;;;;;;;;-0.10;99.90;;;;;;5061420;28;19943;-71
2022/01/13 00:38:40;;;;;;;;;;;-0.10;99.90;;;;;;5048826;28;19925;-71
2022/01/13 00:41:07;;;;;;;;;;;-0.10;99.90;;;;;;5060680;28;19920;-71
2022/01/13 00:43:37;;;;;;;;;;;-0.10;99.90;;;;;;5057117;28;19921;-71
2022/01/13 00:46:04;;;;;;;;;;;-0.10;99.90;;;;;;5065605;28;20004;-71
2022/01/13 00:48:30;;;;;;;;;;;-0.10;99.90;;;;;;5064851;28;19925;-71
2022/01/13 00:50:57;;;;;;;;;;;-0.10;99.90;;;;;;5065807;28;20213;-70
2022/01/13 00:53:25;;;;;;;;;;;-0.10;99.90;;;;;;5065654;28;19921;-71
2022/01/13 00:55:58;;;;;;;;;;;-0.10;99.90;;;;;;5065102;28;19928;-73
2022/01/13 00:58:25;;;;;;;;;;;-0.10;99.90;;;;;;5065073;28;19928;-71
2022/01/13 01:00:52;;;;;;;;;;;0.00;99.90;;;;;;5065011;28;19921;-72
2022/01/13 01:03:19;;;;;;;;;;;-0.10;99.90;;;;;;5060553;28;19927;-71
2022/01/13 01:05:45;;;;;;;;;;;-0.10;99.90;;;;;;5062975;28;19921;-71
2022/01/13 01:08:12;;;;;;;;;;;-0.10;99.90;;;;;;5060428;28;19920;-71
2022/01/13 01:10:41;;;;;;;;;;;-0.10;99.90;;;;;;5065542;28;19921;-71
2022/01/13 01:13:12;;;;;;;;;;;-0.10;99.90;;;;;;5047526;28;19925;-71
2022/01/13 01:15:42;;;;;;;;;;;-0.10;99.90;;;;;;5052553;28;20263;-71
2022/01/13 01:18:18;;;;;;;;;;;-0.10;99.90;;;;;;5064365;28;19921;-71
2022/01/13 01:20:51;;;;;;;;;;;-0.10;99.90;;;;;;5064667;28;20183;-71
2022/01/13 01:23:24;;;;;;;;;;;-0.10;99.90;;;;;;5044798;28;19967;-71
2022/01/13 01:26:03;;;;;;;;;;;-0.10;99.90;;;;;;5045054;28;19929;-71
2022/01/13 01:28:40;;;;;;;;;;;-0.20;99.90;;;;;;5052492;28;19987;-71
2022/01/13 01:31:06;;;;;;;;;;;-0.20;99.90;;;;;;5064724;28;19924;-71
2022/01/13 01:33:34;;;;;;;;;;;-0.30;99.90;;;;;;5064254;28;19989;-72
2022/01/13 01:36:01;;;;;;;;;;;-0.20;99.90;;;;;;5062604;28;19933;-71
2022/01/13 01:38:28;;;;;;;;;;;-0.20;99.90;;;;;;5045422;28;19920;-71
2022/01/13 01:40:56;;;;;;;;;;;-0.20;99.90;;;;;;5064107;28;19987;-69
2022/01/13 01:43:22;;;;;;;;;;;-0.20;99.90;;;;;;5045459;28;19921;-73
2022/01/13 01:45:50;;;;;;;;;;;-0.30;99.90;;;;;;5054842;28;19920;-73
2022/01/13 01:48:19;;;;;;;;;;;-0.30;99.90;;;;;;5056792;28;19956;-73
2022/01/13 01:50:54;;;;;;;;;;;-0.40;99.90;;;;;;5047493;28;19927;-73
2022/01/13 01:53:21;;;;;;;;;;;-0.40;99.90;;;;;;5063963;28;19925;-70
2022/01/13 01:55:48;;;;;;;;;;;-0.40;99.90;;;;;;5063633;28;20212;-73
2022/01/13 01:58:16;;;;;;;;;;;-0.30;99.90;;;;;;5063848;28;19928;-71
2022/01/13 02:00:43;;;;;;;;;;;-0.40;99.90;;;;;;5064057;28;19967;-70
2022/01/13 02:03:10;;;;;;;;;;;-0.40;99.90;;;;;;5063614;28;19935;-70
2022/01/13 02:05:37;;;;;;;;;;;-0.40;99.90;;;;;;5063030;28;19921;-73
2022/01/13 02:08:05;;;;;;;;;;;-0.40;99.90;;;;;;5059957;28;19927;-73
2022/01/13 02:10:32;;;;;;;;;;;-0.50;99.90;;;;;;5050958;28;19920;-73
2022/01/13 02:13:04;;;;;;;;;;;-0.50;99.90;;;;;;5050831;28;19921;-71
2022/01/13 02:15:35;;;;;;;;;;;-0.50;99.90;;;;;;5056356;28;20213;-73
2022/01/13 02:18:03;;;;;;;;;;;-0.50;99.90;;;;;;5056760;28;19983;-71
2022/01/13 02:20:44;;;;;;;;;;;-0.60;99.90;;;;;;5064206;28;19942;-74
2022/01/13 02:23:10;;;;;;;;;;;-0.60;99.90;;;;;;5064003;28;20341;-71
2022/01/13 02:25:37;;;;;;;;;;;-0.60;99.90;;;;;;5063130;28;19921;-71
2022/01/13 02:28:03;;;;;;;;;;;-0.60;99.90;;;;;;5051406;28;19927;-71
2022/01/13 02:30:30;;;;;;;;;;;-0.60;99.90;;;;;;5063770;28;20163;-71
2022/01/13 02:32:57;;;;;;;;;;;-0.70;99.90;;;;;;5048895;28;19921;-71
2022/01/13 02:35:26;;;;;;;;;;;-0.60;99.90;;;;;;5042735;28;19921;-71
2022/01/13 02:37:54;;;;;;;;;;;-0.70;99.90;;;;;;5056716;28;19929;-71
2022/01/13 02:40:20;;;;;;;;;;;-0.70;99.90;;;;;;5063598;28;19921;-70
2022/01/13 02:42:47;;;;;;;;;;;-0.70;99.90;;;;;;5063910;28;19921;-71
2022/01/13 02:45:18;;;;;;;;;;;-0.70;99.90;;;;;;5062638;28;19927;-71
2022/01/13 02:50:28;;;;;;;;;;;-0.80;99.90;;;;;;5057427;28;19984;-70
2022/01/13 02:52:56;;;;;;;;;;;-0.80;99.90;;;;;;5063963;28;19921;-70
2022/01/13 02:55:24;;;;;;;;;;;-0.80;99.90;;;;;;5053738;28;19928;-70
2022/01/13 02:57:50;;;;;;;;;;;-0.80;99.90;;;;;;5063282;28;20123;-70
2022/01/13 03:00:17;;;;;;;;;;;-0.80;99.90;;;;;;5063260;28;19921;-70
2022/01/13 03:02:47;;;;;;;;;;;-0.80;99.90;;;;;;5050434;28;19921;-70
2022/01/13 03:05:14;;;;;;;;;;;-0.80;99.90;;;;;;5062267;28;19925;-70
2022/01/13 03:07:41;;;;;;;;;;;-0.80;99.90;;;;;;5056913;28;20225;-70
2022/01/13 03:10:10;;;;;;;;;;;-0.80;99.90;;;;;;5063274;28;19927;-70
2022/01/13 03:12:41;;;;;;;;;;;-0.80;99.90;;;;;;5053936;28;19927;-70
2022/01/13 03:15:07;;;;;;;;;;;-0.80;99.90;;;;;;5062515;28;20258;-70
2022/01/13 03:17:34;;;;;;;;;;;-0.80;99.90;;;;;;5054226;28;19921;-70
2022/01/13 03:20:00;;;;;;;;;;;-0.80;99.90;;;;;;5058478;28;19927;-70
2022/01/13 03:22:27;;;;;;;;;;;-0.80;99.90;;;;;;5062409;28;19921;-70
2022/01/13 03:24:54;;;;;;;;;;;-0.70;99.90;;;;;;5043460;28;19929;-71
2022/01/13 03:27:23;;;;;;;;;;;-0.80;99.90;;;;;;5043172;28;19921;-70
2022/01/13 03:29:50;;;;;;;;;;;-0.80;99.90;;;;;;5043270;28;19925;-70
2022/01/13 03:32:17;;;;;;;;;;;-0.80;99.90;;;;;;5061673;28;19931;-70
2022/01/13 03:34:43;;;;;;;;;;;-0.90;99.90;;;;;;5061942;28;19927;-70
2022/01/13 03:37:10;;;;;;;;;;;-0.90;99.90;;;;;;5060399;28;19991;-70
2022/01/13 03:39:37;;;;;;;;;;;-0.90;99.90;;;;;;5064119;28;19928;-70
2022/01/13 03:42:03;;;;;;;;;;;-0.90;99.90;;;;;;5067178;28;19925;-70
2022/01/13 03:44:31;;;;;;;;;;;-0.90;99.90;;;;;;5047442;28;20209;-70
2022/01/13 03:47:02;;;;;;;;;;;-0.90;99.90;;;;;;5046991;28;19921;-70
2022/01/13 03:49:28;;;;;;;;;;;-0.90;99.90;;;;;;5058381;28;19924;-70
2022/01/13 03:52:32;;;;;;;;;;;-0.90;99.90;;;;;;5065161;28;19920;-70
2022/01/13 03:55:17;;;;;;;;;;;-0.90;99.90;;;;;;5052701;28;19927;-71
2022/01/13 03:57:58;;;;;;;;;;;-0.80;99.90;;;;;;5064656;28;20208;-71
2022/01/13 04:00:46;;;;;;;;;;;-0.80;99.90;;;;;;5066834;28;19921;-70
2022/01/13 04:03:14;;;;;;;;;;;-0.90;99.90;;;;;;5066808;28;19927;-70
2022/01/13 04:05:55;;;;;;;;;;;-0.80;99.90;;;;;;5065955;28;20131;-72
2022/01/13 04:08:22;;;;;;;;;;;-0.90;99.90;;;;;;5055616;28;19921;-70
2022/01/13 04:11:06;;;;;;;;;;;-0.80;99.90;;;;;;5046834;28;19921;-70
2022/01/13 04:13:45;;;;;;;;;;;-0.90;99.90;;;;;;5049663;28;19921;-70
2022/01/13 04:16:13;;;;;;;;;;;-0.90;99.90;;;;;;5066499;28;19927;-70
2022/01/13 04:18:41;;;;;;;;;;;-0.90;99.90;;;;;;5065871;28;19920;-71
2022/01/13 04:21:08;;;;;;;;;;;-1.00;99.90;;;;;;5064273;28;19942;-71
2022/01/13 04:23:35;;;;;;;;;;;-1.00;99.90;;;;;;5065968;28;19928;-73
2022/01/13 04:26:05;;;;;;;;;;;-1.00;99.90;;;;;;5046248;28;19921;-70
2022/01/13 04:28:31;;;;;;;;;;;-1.10;99.90;;;;;;5054178;28;19956;-71
2022/01/13 04:31:01;;;;;;;;;;;-1.00;99.90;;;;;;5066410;28;19921;-71
2022/01/13 04:33:28;;;;;;;;;;;-1.10;99.90;;;;;;5066256;28;19963;-70
2022/01/13 04:35:56;;;;;;;;;;;-1.00;99.90;;;;;;5065747;28;19920;-71
2022/01/13 04:38:22;;;;;;;;;;;-1.00;99.90;;;;;;5064961;28;20216;-70
2022/01/13 04:40:55;;;;;;;;;;;-1.00;99.90;;;;;;5050398;28;19971;-70
2022/01/13 04:43:21;;;;;;;;;;;-1.00;99.90;;;;;;5050280;28;19953;-71
2022/01/13 04:45:48;;;;;;;;;;;-1.00;99.90;;;;;;5045540;28;19943;-70
2022/01/13 04:48:15;;;;;;;;;;;-1.00;99.90;;;;;;5048685;28;19925;-71
2022/01/13 04:50:42;;;;;;;;;;;-0.90;99.90;;;;;;5044859;28;19921;-70
2022/01/13 04:53:11;;;;;;;;;;;-1.00;99.90;;;;;;5050625;28;20121;-71
2022/01/13 04:55:38;;;;;;;;;;;-0.90;99.90;;;;;;5065229;28;19927;-71
2022/01/13 04:58:05;;;;;;;;;;;-0.90;99.90;;;;;;5063534;28;19921;-70
2022/01/13 05:00:33;;;;;;;;;;;-0.90;99.90;;;;;;5062766;28;19927;-70
2022/01/13 05:02:59;;;;;;;;;;;-0.90;99.90;;;;;;5065862;28;19921;-70
2022/01/13 05:05:27;;;;;;;;;;;-1.00;99.90;;;;;;5055896;28;20230;-70
2022/01/13 05:07:54;;;;;;;;;;;-1.10;99.90;;;;;;5057711;28;20089;-70
2022/01/13 05:10:22;;;;;;;;;;;-1.10;99.90;;;;;;5057768;28;19980;-70
2022/01/13 05:12:54;;;;;;;;;;;-1.10;99.90;;;;;;5056652;28;20149;-70
2022/01/13 05:15:23;;;;;;;;;;;-1.10;99.90;;;;;;5065007;28;20116;-70
2022/01/13 05:20:42;;;;;;;;;;;-1.20;99.90;;;;;;5064706;28;20396;-70
2022/01/13 05:23:10;;;;;;;;;;;-1.20;99.90;;;;;;5056054;28;20216;-72
2022/01/13 05:25:38;;;;;;;;;;;-1.20;99.90;;;;;;5044486;28;19927;-70
2022/01/13 05:28:05;;;;;;;;;;;-1.20;99.90;;;;;;5044882;28;20069;-71
2022/01/13 05:30:32;;;;;;;;;;;-1.20;99.90;;;;;;5045083;28;19925;-70
2022/01/13 05:32:58;;;;;;;;;;;-1.30;99.90;;;;;;5045085;28;19921;-70
2022/01/13 05:35:25;;;;;;;;;;;-1.30;99.90;;;;;;5057250;28;19929;-70
2022/01/13 05:37:52;;;;;;;;;;;-1.40;99.90;;;;;;5064016;28;20227;-71
2022/01/13 05:40:19;;;;;;;;;;;-1.40;99.90;;;;;;5064411;28;20140;-70
2022/01/13 05:42:47;;;;;;;;;;;-1.40;99.90;;;;;;5064400;28;19921;-72
2022/01/13 05:45:19;;;;;;;;;;;-1.50;99.90;;;;;;5063784;28;19927;-72
2022/01/13 05:47:46;;;;;;;;;;;-1.50;99.90;;;;;;5062540;28;19921;-71
2022/01/13 05:50:14;;;;;;;;;;;-1.60;99.90;;;;;;5060017;28;20205;-72
2022/01/13 05:52:40;;;;;;;;;;;-1.60;99.90;;;;;;5053941;28;20150;-72
2022/01/13 05:55:08;;;;;;;;;;;-1.60;99.90;;;;;;5063725;28;19925;-71
2022/01/13 05:57:35;;;;;;;;;;;-1.70;99.90;;;;;;5063569;28;20140;-72
2022/01/13 06:00:04;;;;;;;;;;;-1.70;99.90;;;;;;5064516;28;19927;-72
2022/01/13 06:02:31;;;;;;;;;;;-1.60;99.90;;;;;;5063666;28;20094;-72
2022/01/13 06:04:57;;;;;;;;;;;-1.60;99.90;;;;;;5053870;28;19925;-71
2022/01/13 06:07:24;;;;;;;;;;;-1.60;99.90;;;;;;5051926;28;19925;-71
2022/01/13 06:09:50;;;;;;;;;;;-1.70;99.90;;;;;;5063591;28;19921;-72
2022/01/13 06:12:19;;;;;;;;;;;-1.70;99.90;;;;;;5058492;28;19933;-71
2022/01/13 06:14:46;;;;;;;;;;;-1.70;99.90;;;;;;5043974;28;20098;-73
2022/01/13 06:17:14;;;;;;;;;;;-1.70;99.90;;;;;;5057256;28;19921;-71
2022/01/13 06:19:40;;;;;;;;;;;-1.80;99.90;;;;;;5063655;28;19929;-71
2022/01/13 06:22:07;;;;;;;;;;;-1.80;99.90;;;;;;5057644;28;19921;-71
2022/01/13 06:24:34;;;;;;;;;;;-1.80;99.90;;;;;;5043306;28;19930;-70
2022/01/13 06:27:01;;;;;;;;;;;-1.80;99.90;;;;;;5044267;28;19928;-71
2022/01/13 06:29:27;;;;;;;;;;;-1.80;99.90;;;;;;5044783;28;19979;-72
2022/01/13 06:31:56;;;;;;;;;;;-1.80;99.90;;;;;;5044507;28;19929;-72
2022/01/13 06:34:24;;;;;;;;;;;-1.80;99.90;;;;;;5043775;28;19921;-71
2022/01/13 06:36:51;;;;;;;;;;;-1.80;99.90;;;;;;5044375;28;19921;-72
2022/01/13 06:39:17;;;;;;;;;;;-1.80;99.90;;;;;;5044308;28;19921;-71
2022/01/13 06:41:44;;;;;;;;;;;-1.80;99.90;;;;;;5044377;28;19922;-71
2022/01/13 06:44:10;;;;;;;;;;;-1.80;99.90;;;;;;5044134;28;20116;-72
2022/01/13 06:46:37;;;;;;;;;;;-1.80;99.90;;;;;;5044151;28;19924;-72
2022/01/13 06:49:03;;;;;;;;;;;-1.70;99.90;;;;;;5044279;28;19928;-72
2022/01/13 06:51:31;;;;;;;;;;;-1.70;99.90;;;;;;5044137;28;19921;-72
2022/01/13 06:53:58;;;;;;;;;;;-1.70;99.90;;;;;;5043133;28;19921;-72
2022/01/13 06:56:26;;;;;;;;;;;-1.70;99.90;;;;;;5044002;28;19922;-71
2022/01/13 06:58:54;;;;;;;;;;;-1.70;99.90;;;;;;5044096;28;20271;-71
2022/01/13 07:01:22;;;;;;;;;;;-1.70;99.90;;;;;;5044004;28;19928;-72
2022/01/13 07:03:49;;;;;;;;;;;-1.70;99.90;;;;;;5043119;28;20324;-72
2022/01/13 07:06:15;;;;;;;;;;;-1.70;99.90;;;;;;5049181;28;19920;-71
2022/01/13 07:08:43;;;;;;;;;;;-1.70;99.90;;;;;;5062847;28;19921;-71
2022/01/13 07:11:10;;;;;;;;;;;-1.70;99.90;;;;;;5063905;28;19943;-71
2022/01/13 07:13:36;;;;;;;;;;;-1.80;99.90;;;;;;5064153;28;19921;-72
2022/01/13 07:16:03;;;;;;;;;;;-1.80;99.90;;;;;;5062778;28;20108;-72
2022/01/13 07:18:30;;;;;;;;;;;-1.80;99.90;;;;;;5048212;28;19921;-72
2022/01/13 07:20:57;;;;;;;;;;;-1.80;99.90;;;;;;5047912;28;19921;-71
2022/01/13 07:23:23;;;;;;;;;;;-1.80;99.90;;;;;;5058688;28;19952;-71
2022/01/13 07:25:51;;;;;;;;;;;-1.80;99.90;;;;;;5049521;28;19943;-72
2022/01/13 07:28:18;;;;;;;;;;;-1.90;99.90;;;;;;5053391;28;19924;-72
2022/01/13 07:30:44;;;;;;;;;;;-1.90;99.90;;;;;;5067377;28;20212;-72
2022/01/13 07:33:11;;;;;;;;;;;-1.90;99.90;;;;;;5067689;28;20152;-72
2022/01/13 07:35:37;;;;;;;;;;;-1.90;99.90;;;;;;5060432;28;19949;-71
2022/01/13 07:38:05;;;;;;;;;;;-1.80;99.90;;;;;;5061464;28;19927;-72
2022/01/13 07:40:32;;;;;;;;;;;-1.80;99.90;;;;;;5062653;28;19921;-72
2022/01/13 07:43:00;;;;;;;;;;;-1.80;99.90;;;;;;5067281;28;20231;-72
2022/01/13 07:45:26;;;;;;;;;;;-1.80;99.90;;;;;;5066522;28;19921;-72
2022/01/13 07:47:54;;;;;;;;;;;-1.70;99.90;;;;;;5060681;28;19928;-72
2022/01/13 07:50:20;;;;;;;;;;;-1.70;99.90;;;;;;5059025;28;19927;-72
2022/01/13 07:52:47;;;;;;;;;;;-1.70;99.90;;;;;;5067288;28;19928;-72
2022/01/13 07:55:14;;;;;;;;;;;-1.70;99.90;;;;;;5066409;28;19920;-72
2022/01/13 07:57:40;;;;;;;;;;;-1.70;99.90;;;;;;5066715;28;19932;-72
2022/01/13 08:00:10;;;;;;;;;;;-1.70;99.90;;;;;;5064603;28;19921;-71
2022/01/13 08:02:37;;;;;;;;;;;-1.70;99.90;;;;;;5067202;28;19958;-72
2022/01/13 08:05:04;;;;;;;;;;;-1.60;99.90;;;;;;5066375;28;20111;-71
2022/01/13 08:07:31;;;;;;;;;;;-1.60;99.90;;;;;;5066323;28;19920;-72
2022/01/13 08:09:58;;;;;;;;;;;-1.60;99.90;;;;;;5057518;28;19921;-72
2022/01/13 08:12:25;;;;;;;;;;;-1.60;99.90;;;;;;5054782;28;19932;-71
2022/01/13 08:14:52;;;;;;;;;;;-1.60;99.90;;;;;;5066009;28;19927;-71
2022/01/13 08:19:45;;;;;;;;;;;-1.60;99.90;;;;;;5066478;28;20162;-72
2022/01/13 08:20:06;;;;;;;;;;;-1.60;99.90;;;;;;5061582;28;19928;-72
2022/01/13 08:22:33;;;;;;;;;;;-1.50;99.90;;;;;;5066851;28;19923;-72
2022/01/13 08:24:59;;;;;;;;;;;-1.50;99.90;;;;;;5065717;28;19921;-71
2022/01/13 08:27:26;;;;;;;;;;;-1.40;99.90;;;;;;5066193;28;19921;-72
2022/01/13 08:29:53;;;;;;;;;;;-1.50;99.90;;;;;;5063493;28;19931;-72
2022/01/13 08:32:21;;;;;;;;;;;-1.50;99.90;;;;;;5066579;28;19921;-71
2022/01/13 08:34:47;;;;;;;;;;;-1.50;99.90;;;;;;5065665;28;20212;-71
2022/01/13 08:37:14;;;;;;;;;;;-1.50;99.90;;;;;;5066133;28;20008;-72
2022/01/13 08:39:44;;;;;;;;;;;-1.50;99.90;;;;;;5065295;28;19928;-72
2022/01/13 08:42:11;;;;;;;;;;;-1.40;99.90;;;;;;5066320;28;19928;-72
2022/01/13 08:44:37;;;;;;;;;;;-1.40;99.90;;;;;;5052606;28;19921;-71
2022/01/13 08:47:04;;;;;;;;;;;-1.40;99.90;;;;;;5045573;28;20213;-72
2022/01/13 08:49:33;;;;;;;;;;;-1.40;99.90;;;;;;5045629;28;19921;-72
2022/01/13 08:52:00;;;;;;;;;;;-1.40;99.90;;;;;;5045558;28;19984;-72
2022/01/13 08:54:26;;;;;;;;;;;-1.40;99.90;;;;;;5045328;28;19988;-72
2022/01/13 08:56:53;;;;;;;;;;;-1.40;99.90;;;;;;5045256;28;20357;-72
2022/01/13 08:59:20;;;;;;;;;;;-1.30;99.90;;;;;;5060869;28;19943;-73
2022/01/13 09:01:46;;;;;;;;;;;-1.30;99.90;;;;;;5065909;28;19924;-72
2022/01/13 09:04:13;;;;;;;;;;;-1.20;99.90;;;;;;5064853;28;19927;-72
2022/01/13 09:06:41;;;;;;;;;;;-1.20;99.90;;;;;;5065234;28;19928;-72
2022/01/13 09:09:07;;;;;;;;;;;-1.20;99.90;;;;;;5065073;28;19921;-72
2022/01/13 09:11:34;;;;;;;;;;;-1.10;99.90;;;;;;5065027;28;20226;-72
2022/01/13 09:14:01;;;;;;;;;;;-1.10;99.90;;;;;;5064705;28;19927;-72
2022/01/13 09:16:30;;;;;;;;;;;-1.10;99.90;;;;;;5055440;28;19925;-72
2022/01/13 09:19:07;;;;;;;;;;;-1.00;99.90;;;;;;5048586;28;19975;-72
2022/01/13 09:21:37;;;;;;;;;;;-1.00;99.90;;;;;;5049153;28;19959;-73
2022/01/13 09:24:05;;;;;;;;;;;-0.90;99.90;;;;;;5044502;28;19921;-72
2022/01/13 09:26:32;;;;;;;;;;;-0.90;99.90;;;;;;5045402;28;19925;-72
2022/01/13 09:28:58;;;;;;;;;;;-0.90;99.90;;;;;;5044840;28;19951;-72
2022/01/13 09:31:26;;;;;;;;;;;-0.80;99.90;;;;;;5055830;28;19932;-72
2022/01/13 09:33:53;;;;;;;;;;;-0.70;99.90;;;;;;5056112;28;19959;-72
2022/01/13 09:36:20;;;;;;;;;;;-0.60;99.90;;;;;;5064561;28;19921;-73
2022/01/13 09:38:47;;;;;;;;;;;-0.60;99.90;;;;;;5063270;28;19920;-72
2022/01/13 09:41:15;;;;;;;;;;;-0.50;99.90;;;;;;5065204;28;19920;-72
2022/01/13 09:43:43;;;;;;;;;;;-0.40;99.90;;;;;;5059188;28;19921;-73
2022/01/13 09:46:11;;;;;;;;;;;-0.30;99.90;;;;;;5044641;28;19928;-73
2022/01/13 09:48:38;;;;;;;;;;;-0.10;99.90;;;;;;5044386;28;20124;-73
2022/01/13 09:51:05;;;;;;;;;;;-0.10;99.90;;;;;;5056575;28;19921;-73
2022/01/13 09:53:32;;;;;;;;;;;0.00;99.90;;;;;;5044182;28;19921;-71
2022/01/13 09:55:58;;;;;;;;;;;0.10;99.90;;;;;;5044772;28;19921;-73
2022/01/13 09:58:26;;;;;;;;;;;0.10;99.90;;;;;;5044293;28;19921;-72
2022/01/13 10:00:53;;;;;;;;;;;0.20;99.90;;;;;;5044023;28;19921;-73
2022/01/13 10:03:23;;;;;;;;;;;0.30;99.90;;;;;;5043964;28;19921;-72
2022/01/13 10:05:50;;;;;;;;;;;0.40;99.90;;;;;;5062488;28;19951;-73
2022/01/13 10:08:17;;;;;;;;;;;0.50;99.90;;;;;;5062806;28;19921;-73
2022/01/13 10:10:44;;;;;;;;;;;0.60;99.90;;;;;;5054040;28;19921;-73
2022/01/13 10:13:13;;;;;;;;;;;0.60;99.90;;;;;;5044639;28;19921;-73
2022/01/13 10:18:39;;;;;;;;;;;0.60;99.90;;;;;;5018475;28;19988;-72
2022/01/13 10:21:07;;;;;;;;;;;0.70;99.90;;;;;;5054716;28;19933;-72
2022/01/13 10:23:34;;;;;;;;;;;0.70;99.90;;;;;;5056668;28;20117;-73
2022/01/13 10:26:08;;;;;;;;;;;0.80;99.90;;;;;;5043772;28;19928;-72
2022/01/13 10:28:34;;;;;;;;;;;0.80;99.90;;;;;;5043791;28;19927;-73
2022/01/13 10:31:02;;;;;;;;;;;0.80;99.90;;;;;;5043721;28;19921;-72
2022/01/13 10:33:29;;;;;;;;;;;0.80;99.90;;;;;;5043146;28;20205;-72
2022/01/13 10:36:06;;;;;;;;;;;0.80;99.90;;;;;;5043312;28;19928;-73
2022/01/13 10:38:50;;;;;;;;;;;0.80;99.90;;;;;;5043122;28;19928;-73
2022/01/13 10:41:28;;;;;;;;;;;0.80;99.90;;;;;;5042898;28;19921;-72
2022/01/13 10:44:10;;;;;;;;;;;0.80;99.90;;;;;;5049662;28;19927;-72
2022/01/13 10:46:51;;;;;;;;;;;0.90;99.90;;;;;;5063803;28;19924;-73
2022/01/13 10:49:19;;;;;;;;;;;0.90;99.90;;;;;;5059014;28;19928;-72
2022/01/13 10:51:46;;;;;;;;;;;1.00;99.90;;;;;;5053733;28;19929;-72
2022/01/13 10:54:23;;;;;;;;;;;1.00;99.90;;;;;;5063009;28;19921;-73
2022/01/13 10:56:50;;;;;;;;;;;1.00;99.90;;;;;;5063340;28;19936;-72
2022/01/13 10:59:31;;;;;;;;;;;0.90;99.90;;;;;;5053508;28;19921;-73
2022/01/13 11:02:08;;;;;;;;;;;0.90;99.90;;;;;;5046924;28;19929;-72
2022/01/13 11:04:36;;;;;;;;;;;1.00;99.90;;;;;;5055026;28;19921;-73
2022/01/13 11:07:16;;;;;;;;;;;1.00;99.90;;;;;;5062554;28;20112;-73
2022/01/13 11:09:44;;;;;;;;;;;1.00;99.90;;;;;;5061990;28;20116;-73
2022/01/13 11:12:11;;;;;;;;;;;1.00;99.90;;;;;;5063495;28;19920;-72
2022/01/13 11:14:42;;;;;;;;;;;1.10;99.90;;;;;;5062947;28;19920;-73
2022/01/13 11:17:10;;;;;;;;;;;1.10;99.90;;;;;;5063338;28;19921;-72
2022/01/13 11:19:39;;;;;;;;;;;1.10;99.90;;;;;;5062305;28;19921;-73
2022/01/13 11:22:06;;;;;;;;;;;1.20;99.90;;;;;;5049698;28;20231;-72
2022/01/13 11:24:33;;;;;;;;;;;1.20;99.90;;;;;;5043243;28;20112;-72
2022/01/13 11:27:00;;;;;;;;;;;1.20;99.90;;;;;;5043261;28;19927;-72
2022/01/13 11:29:27;;;;;;;;;;;1.20;99.90;;;;;;5059367;28;19943;-72
2022/01/13 11:31:55;;;;;;;;;;;1.30;99.90;;;;;;5063123;28;20212;-72
2022/01/13 11:34:22;;;;;;;;;;;1.30;99.90;;;;;;5062099;28;20259;-72
2022/01/13 11:36:50;;;;;;;;;;;1.30;99.90;;;;;;5062875;28;19944;-73
2022/01/13 11:39:17;;;;;;;;;;;1.30;99.90;;;;;;5063225;28;19982;-72
2022/01/13 11:42:11;;;;;;;;;;;1.30;99.90;;;;;;5063070;28;19944;-72
2022/01/13 11:44:38;;;;;;;;;;;1.40;99.90;;;;;;5015453;28;19921;-72
2022/01/13 11:47:16;;;;;;;;;;;1.40;99.90;;;;;;5062943;28;20220;-72
2022/01/13 11:49:54;;;;;;;;;;;1.40;99.90;;;;;;5062918;28;19927;-72
2022/01/13 11:52:39;;;;;;;;;;;1.30;99.90;;;;;;5062866;28;19921;-72
2022/01/13 11:55:19;;;;;;;;;;;1.30;99.90;;;;;;5061998;28;19936;-73
2022/01/13 11:57:46;;;;;;;;;;;1.20;99.90;;;;;;5062902;28;19921;-73
2022/01/13 12:00:19;;;;;;;;;;;1.30;99.90;;;;;;5064656;28;19925;-73
2022/01/13 12:02:46;;;;;;;;;;;1.40;99.90;;;;;;5066371;28;19928;-73
2022/01/13 12:05:16;;;;;;;;;;;1.40;99.90;;;;;;5062582;28;19921;-73
2022/01/13 12:07:45;;;;;;;;;;;1.50;99.90;;;;;;5059498;28;19984;-71
2022/01/13 12:10:25;;;;;;;;;;;1.50;99.90;;;;;;5066104;28;19921;-74
2022/01/13 12:12:52;;;;;;;;;;;1.50;99.90;;;;;;5066748;28;19921;-72
2022/01/13 12:15:20;;;;;;;;;;;1.60;99.90;;;;;;5065664;28;19921;-72
2022/01/13 12:17:47;;;;;;;;;;;1.60;99.90;;;;;;5066496;28;19927;-72
2022/01/13 12:20:40;;;;;;;;;;;1.60;99.90;;;;;;5065911;28;20181;-71
2022/01/13 12:23:16;;;;;;;;;;;1.60;99.90;;;;;;5064978;28;20216;-72
2022/01/13 12:25:44;;;;;;;;;;;1.80;99.90;;;;;;5065552;28;20121;-72
2022/01/13 12:28:15;;;;;;;;;;;1.80;99.90;;;;;;5065920;28;19927;-72
2022/01/13 12:30:41;;;;;;;;;;;1.90;99.90;;;;;;5060007;28;20223;-72
2022/01/13 12:33:09;;;;;;;;;;;1.90;99.90;;;;;;5059891;28;20116;-72
2022/01/13 12:35:43;;;;;;;;;;;2.00;99.90;;;;;;5059500;28;20259;-72
2022/01/13 12:38:13;;;;;;;;;;;2.00;99.90;;;;;;5059008;28;20151;-73
2022/01/13 12:40:43;;;;;;;;;;;2.00;99.90;;;;;;5058411;28;19921;-72
2022/01/13 12:43:20;;;;;;;;;;;1.90;99.90;;;;;;5066152;28;20211;-71
2022/01/13 12:45:47;;;;;;;;;;;1.90;99.90;;;;;;5049804;28;19921;-71
2022/01/13 12:48:14;;;;;;;;;;;1.90;99.90;;;;;;5065112;28;19927;-72
2022/01/13 12:50:42;;;;;;;;;;;2.00;99.90;;;;;;5046936;28;19921;-72
2022/01/13 12:53:11;;;;;;;;;;;2.00;99.90;;;;;;5058514;28;19928;-72
2022/01/13 12:55:40;;;;;;;;;;;2.10;99.90;;;;;;5061907;28;19963;-72
2022/01/13 12:58:07;;;;;;;;;;;2.20;99.90;;;;;;5064908;28;19928;-72
2022/01/13 13:00:34;;;;;;;;;;;2.30;99.90;;;;;;5065774;28;19921;-71
2022/01/13 13:03:06;;;;;;;;;;;2.40;99.90;;;;;;5065872;28;19980;-72
2022/01/13 13:05:34;;;;;;;;;;;2.50;99.90;;;;;;5064721;28;19920;-72
2022/01/13 13:08:01;;;;;;;;;;;2.50;99.90;;;;;;5064327;28;19927;-72
2022/01/13 13:10:28;;;;;;;;;;;2.60;99.90;;;;;;5064043;28;19921;-71
2022/01/13 13:12:58;;;;;;;;;;;2.70;99.90;;;;;;5063829;28;19924;-72
2022/01/13 13:15:40;;;;;;;;;;;2.70;99.90;;;;;;5047933;28;19956;-72
2022/01/13 13:18:10;;;;;;;;;;;2.70;99.90;;;;;;5044562;28;19920;-73
2022/01/13 13:20:37;;;;;;;;;;;2.50;99.90;;;;;;5043891;28;19959;-74
2022/01/13 13:23:06;;;;;;;;;;;2.40;99.90;;;;;;5044127;28;19928;-71
2022/01/13 13:25:34;;;;;;;;;;;2.40;99.90;;;;;;5043665;28;19921;-73
2022/01/13 13:28:16;;;;;;;;;;;2.40;99.90;;;;;;5046532;28;19927;-73
2022/01/13 13:30:44;;;;;;;;;;;2.40;99.90;;;;;;5062702;28;19921;-72
2022/01/13 13:33:11;;;;;;;;;;;2.40;99.90;;;;;;5064270;28;19921;-73
2022/01/13 13:35:39;;;;;;;;;;;2.40;99.90;;;;;;5049811;28;20197;-73
2022/01/13 13:38:10;;;;;;;;;;;2.40;99.90;;;;;;5049271;28;19921;-73
2022/01/13 13:40:42;;;;;;;;;;;2.30;99.90;;;;;;5057955;28;19933;-73
2022/01/13 13:43:08;;;;;;;;;;;2.20;99.90;;;;;;5063638;28;19927;-73
2022/01/13 13:45:35;;;;;;;;;;;2.20;99.90;;;;;;5063190;28;19928;-73
2022/01/13 13:48:03;;;;;;;;;;;2.10;99.90;;;;;;5053253;28;20228;-73
2022/01/13 13:50:32;;;;;;;;;;;2.10;99.90;;;;;;5060569;28;19931;-73
2022/01/13 13:53:06;;;;;;;;;;;2.10;99.90;;;;;;5058288;28;19921;-72
2022/01/13 13:55:33;;;;;;;;;;;2.10;99.90;;;;;;5061896;28;19924;-72
2022/01/13 13:58:00;;;;;;;;;;;2.20;99.90;;;;;;5046849;28;19921;-72
2022/01/13 14:00:27;;;;;;;;;;;2.20;99.90;;;;;;5058177;28;19927;-72
2022/01/13 14:02:55;;;;;;;;;;;2.20;99.90;;;;;;5055383;28;20137;-72
2022/01/13 14:05:26;;;;;;;;;;;2.10;99.90;;;;;;5060239;28;20093;-72
2022/01/13 14:07:53;;;;;;;;;;;2.10;99.90;;;;;;5000663;28;1732513;-72
2022/01/13 14:10:22;;;;;;;;;;;2.10;99.90;;;;;;5064074;28;19928;-72
2022/01/13 14:12:53;;;;;;;;;;;2.10;99.90;;;;;;5064078;28;20209;-72
2022/01/13 14:15:23;;;;;;;;;;;2.20;99.90;;;;;;5062367;28;19980;-72
2022/01/13 14:17:51;;;;;;;;;;;2.20;99.90;;;;;;5059655;28;19936;-71
2022/01/13 14:20:18;;;;;;;;;;;2.30;99.90;;;;;;5058803;28;19971;-72
2022/01/13 14:22:54;;;;;;;;;;;2.30;99.90;;;;;;5055199;28;19925;-72
2022/01/13 14:25:20;;;;;;;;;;;2.40;99.90;;;;;;5052645;28;19921;-72
2022/01/13 14:27:51;;;;;;;;;;;2.40;99.90;;;;;;5063814;28;19920;-72
2022/01/13 14:30:28;;;;;;;;;;;2.40;99.90;;;;;;5062401;28;19959;-73
2022/01/13 14:33:09;;;;;;;;;;;2.40;99.90;;;;;;5055992;28;19928;-72
2022/01/13 14:35:36;;;;;;;;;;;2.50;99.90;;;;;;5062477;28;19920;-71
2022/01/13 14:38:09;;;;;;;;;;;2.50;99.90;;;;;;5063509;28;19921;-71
2022/01/13 14:40:42;;;;;;;;;;;2.40;99.90;;;;;;5063213;28;19921;-71